Time;durP1;ratioP1;P1;durP2;ratioP2;P2;SDS_P1;SDS_P2;PMS_P1;PMS_P2;Temp;Humidity;BMP_temperature;BMP_pressure;BME280_temperature;BME280_humidity;BME280_pressure;Samples;Min_cycle;Max_cycle;Signal;HPM_P1;HPM_P2
2022/05/04 00:00:06;;;;;;;3.45;2.90;;;9.90;99.90;;;;;;4935613;29;20073;-78
2022/05/04 00:02:32;;;;;;;3.63;3.33;;;9.70;99.90;;;;;;4935568;29;20027;-85
2022/05/04 00:04:57;;;;;;;6.20;3.42;;;9.70;99.90;;;;;;4918416;29;20032;-78
2022/05/04 00:07:23;;;;;;;4.38;3.47;;;9.60;99.90;;;;;;4918108;29;20082;-77
2022/05/04 00:09:48;;;;;;;5.25;3.85;;;9.60;99.90;;;;;;4935198;29;20058;-76
2022/05/04 00:12:14;;;;;;;6.65;3.78;;;9.60;99.90;;;;;;4935065;29;20102;-78
2022/05/04 00:14:40;;;;;;;8.60;3.40;;;9.60;99.90;;;;;;4934707;29;20043;-79
2022/05/04 00:17:05;;;;;;;4.60;3.53;;;9.50;99.90;;;;;;4934750;29;20027;-81
2022/05/04 00:19:31;;;;;;;4.15;3.65;;;9.50;99.90;;;;;;4935396;29;20032;-81
2022/05/04 00:21:57;;;;;;;4.55;3.75;;;9.50;99.90;;;;;;4935180;29;20027;-79
2022/05/04 00:24:22;;;;;;;7.28;3.67;;;9.50;99.90;;;;;;4935059;29;20038;-78
2022/05/04 00:26:48;;;;;;;4.80;3.33;;;9.50;99.90;;;;;;4935014;29;20027;-79
2022/05/04 00:29:16;;;;;;;5.40;3.53;;;9.50;99.90;;;;;;4935162;29;20083;-81
2022/05/04 00:31:42;;;;;;;4.15;3.67;;;9.50;99.90;;;;;;4935547;29;20420;-80
2022/05/04 00:34:07;;;;;;;5.80;2.83;;;9.40;99.90;;;;;;4917785;29;20094;-81
2022/05/04 00:36:33;;;;;;;4.00;3.33;;;9.40;99.90;;;;;;4934848;29;20103;-76
2022/05/04 00:38:59;;;;;;;5.70;3.53;;;9.30;99.90;;;;;;4934761;29;20349;-79
2022/05/04 00:41:25;;;;;;;5.78;3.58;;;9.30;99.90;;;;;;4935202;29;20103;-80
2022/05/04 00:43:52;;;;;;;3.65;2.90;;;9.20;99.90;;;;;;4917766;29;20123;-77
2022/05/04 00:46:20;;;;;;;3.40;3.10;;;9.20;99.90;;;;;;4918146;29;20027;-78
2022/05/04 00:48:46;;;;;;;3.13;2.83;;;9.20;99.90;;;;;;4918133;29;20035;-79
2022/05/04 00:51:12;;;;;;;3.65;3.17;;;9.10;99.90;;;;;;4935180;29;20020;-80
2022/05/04 00:53:39;;;;;;;3.78;2.85;;;9.10;99.90;;;;;;4935425;29;20036;-77
2022/05/04 00:56:08;;;;;;;4.82;3.03;;;9.00;99.90;;;;;;4935985;29;20035;-77
2022/05/04 01:01:21;;;;;;;3.75;2.80;;;9.00;99.90;;;;;;4940732;29;20035;-77
2022/05/04 01:03:47;;;;;;;4.57;3.00;;;9.00;99.90;;;;;;4940403;29;20518;-76
2022/05/04 01:06:13;;;;;;;4.15;3.13;;;9.30;99.90;;;;;;4938182;29;20027;-77
2022/05/04 01:08:38;;;;;;;4.32;3.90;;;9.00;99.90;;;;;;4936160;29;20107;-79
2022/05/04 01:11:04;;;;;;;4.38;3.70;;;8.80;99.90;;;;;;4934955;29;20043;-77
2022/05/04 01:13:31;;;;;;;6.10;4.22;;;8.80;99.90;;;;;;4937817;29;20035;-77
2022/05/04 01:15:56;;;;;;;5.18;3.63;;;8.80;99.90;;;;;;4938114;29;20030;-79
2022/05/04 01:18:22;;;;;;;4.22;3.58;;;8.70;99.90;;;;;;4939739;29;20442;-77
2022/05/04 01:20:48;;;;;;;4.65;3.20;;;8.70;99.90;;;;;;4940251;29;20035;-76
2022/05/04 01:23:14;;;;;;;5.40;3.95;;;8.70;99.90;;;;;;4922386;29;20032;-77
2022/05/04 01:25:41;;;;;;;6.03;4.93;;;8.70;99.90;;;;;;4939853;29;20522;-77
2022/05/04 01:28:07;;;;;;;4.57;4.18;;;8.70;99.90;;;;;;4942854;29;20459;-76
2022/05/04 01:30:35;;;;;;;6.53;4.50;;;8.60;99.90;;;;;;4944232;29;20008;-76
2022/05/04 01:33:01;;;;;;;5.80;3.88;;;8.50;99.90;;;;;;4926880;29;20487;-76
2022/05/04 01:35:27;;;;;;;7.65;4.47;;;8.50;99.90;;;;;;4943437;29;20027;-80
2022/05/04 01:37:53;;;;;;;8.02;4.40;;;8.50;99.90;;;;;;4941897;29;20031;-76
2022/05/04 01:40:19;;;;;;;6.78;3.70;;;8.60;99.90;;;;;;4943686;29;20099;-76
2022/05/04 01:42:45;;;;;;;4.38;2.90;;;8.60;99.90;;;;;;4925660;29;20411;-76
2022/05/04 01:45:11;;;;;;;5.75;3.20;;;8.50;99.90;;;;;;4941037;29;20082;-79
2022/05/04 01:47:38;;;;;;;3.13;2.83;;;8.50;99.90;;;;;;4941365;29;20031;-76
2022/05/04 01:50:10;;;;;;;4.00;2.88;;;8.40;99.90;;;;;;4942356;29;20031;-76
2022/05/04 01:52:36;;;;;;;4.10;3.70;;;8.40;99.90;;;;;;4926299;29;20034;-77
2022/05/04 01:55:02;;;;;;;4.38;3.22;;;8.40;99.90;;;;;;4925501;29;20040;-76
2022/05/04 01:57:27;;;;;;;4.47;3.05;;;8.40;99.90;;;;;;4943065;29;20050;-76
2022/05/04 01:59:53;;;;;;;3.53;2.83;;;8.60;99.90;;;;;;4942651;29;20094;-76
2022/05/04 02:02:19;;;;;;;3.50;3.20;;;8.40;99.90;;;;;;4942358;29;20047;-76
2022/05/04 02:04:50;;;;;;;8.57;3.55;;;8.40;99.90;;;;;;4941674;29;20083;-76
2022/05/04 02:07:16;;;;;;;3.78;3.17;;;8.40;99.90;;;;;;4923020;29;20023;-77
2022/05/04 02:09:41;;;;;;;3.08;2.80;;;8.30;99.90;;;;;;4939646;29;20464;-77
2022/05/04 02:12:07;;;;;;;5.93;3.60;;;8.30;99.90;;;;;;4939158;29;20467;-76
2022/05/04 02:14:33;;;;;;;5.50;4.22;;;8.30;99.90;;;;;;4939145;29;20040;-77
2022/05/04 02:16:59;;;;;;;3.63;3.33;;;8.10;99.90;;;;;;4939430;29;20032;-76
2022/05/04 02:19:25;;;;;;;4.70;4.25;;;8.20;99.90;;;;;;4938862;29;20031;-76
2022/05/04 02:21:51;;;;;;;7.65;3.30;;;8.20;99.90;;;;;;4921674;29;20028;-76
2022/05/04 02:24:17;;;;;;;5.22;3.30;;;8.20;99.90;;;;;;4938675;29;20153;-76
2022/05/04 02:26:43;;;;;;;4.43;3.45;;;8.20;99.90;;;;;;4938764;29;20452;-76
2022/05/04 02:29:08;;;;;;;4.80;4.35;;;8.20;99.90;;;;;;4938369;29;20034;-76
2022/05/04 02:31:34;;;;;;;5.10;3.05;;;8.20;99.90;;;;;;4938665;29;20461;-76
2022/05/04 02:34:00;;;;;;;4.22;3.17;;;8.20;99.90;;;;;;4938167;29;20040;-76
2022/05/04 02:39:09;;;;;;;4.25;3.83;;;8.20;99.90;;;;;;4937201;29;20510;-76
2022/05/04 02:41:35;;;;;;;4.40;3.40;;;7.90;99.90;;;;;;4920717;29;20032;-76
2022/05/04 02:44:03;;;;;;;4.22;3.63;;;8.20;99.90;;;;;;4920429;29;20134;-76
2022/05/04 02:46:30;;;;;;;3.92;3.20;;;8.00;99.90;;;;;;4937777;29;20028;-76
2022/05/04 02:48:56;;;;;;;6.15;4.07;;;8.40;99.90;;;;;;4937885;29;20036;-76
2022/05/04 02:51:22;;;;;;;4.55;4.13;;;8.40;99.90;;;;;;4920449;29;20075;-76
2022/05/04 02:53:47;;;;;;;5.43;3.25;;;8.30;99.90;;;;;;4920073;29;20071;-75
2022/05/04 02:56:15;;;;;;;6.00;2.92;;;8.10;99.90;;;;;;4937093;29;20024;-76
2022/05/04 02:58:45;;;;;;;5.10;3.72;;;8.40;99.90;;;;;;4919875;29;20456;-76
2022/05/04 03:04:06;;;;;;;;;;;7.80;99.90;;;;;;4938434;29;20046;-76
2022/05/04 03:06:33;;;;;;;5.07;3.90;;;7.90;99.90;;;;;;4936671;29;20370;-77
2022/05/04 03:08:59;;;;;;;4.13;3.47;;;7.80;99.90;;;;;;4937156;29;20038;-77
2022/05/04 03:14:08;;;;;;;4.80;4.35;;;7.80;99.90;;;;;;4936788;29;20099;-76
2022/05/04 03:16:36;;;;;;;5.60;4.43;;;7.40;99.90;;;;;;4938001;29;20031;-76
2022/05/04 03:19:04;;;;;;;5.95;4.80;;;7.80;99.90;;;;;;4940395;29;20035;-76
2022/05/04 03:21:30;;;;;;;7.82;4.53;;;7.70;99.90;;;;;;4922699;29;20024;-75
2022/05/04 03:23:55;;;;;;;4.97;3.97;;;7.80;99.90;;;;;;4943230;29;20080;-76
2022/05/04 03:26:21;;;;;;;4.10;3.72;;;7.70;99.90;;;;;;4946449;29;20031;-76
2022/05/04 03:28:47;;;;;;;6.53;4.53;;;7.70;99.90;;;;;;4945187;29;20118;-76
2022/05/04 03:31:12;;;;;;;7.10;4.68;;;7.70;99.90;;;;;;4942354;29;20110;-76
2022/05/04 03:33:38;;;;;;;7.10;4.68;;;8.00;99.90;;;;;;4941567;29;20057;-76
2022/05/04 03:36:04;;;;;;;7.35;4.50;;;7.40;99.90;;;;;;4942338;29;20100;-77
2022/05/04 03:38:29;;;;;;;6.93;4.75;;;7.60;99.90;;;;;;4943035;29;20413;-76
2022/05/04 03:40:55;;;;;;;4.80;4.40;;;7.50;99.90;;;;;;4942619;29;20031;-76
2022/05/04 03:43:21;;;;;;;7.97;4.60;;;7.60;99.90;;;;;;4942992;29;20039;-76
2022/05/04 03:45:47;;;;;;;5.20;4.70;;;8.00;99.90;;;;;;4942653;29;20024;-76
2022/05/04 03:48:12;;;;;;;6.90;4.30;;;8.00;99.90;;;;;;4942120;29;20040;-77
2022/05/04 03:50:38;;;;;;;5.15;4.30;;;7.70;99.90;;;;;;4942402;29;20034;-76
2022/05/04 03:53:03;;;;;;;5.68;4.45;;;7.70;99.90;;;;;;4941485;29;20023;-76
2022/05/04 03:55:29;;;;;;;6.55;4.65;;;7.80;99.90;;;;;;4941663;29;20035;-76
2022/05/04 03:57:55;;;;;;;5.97;4.63;;;7.60;99.90;;;;;;4940770;29;20043;-76
2022/05/04 04:00:21;;;;;;;6.53;5.32;;;8.10;99.90;;;;;;4940665;29;20482;-76
2022/05/04 04:02:46;;;;;;;5.60;4.93;;;7.70;99.90;;;;;;4940527;29;20054;-76
2022/05/04 04:05:12;;;;;;;8.38;5.43;;;7.70;99.90;;;;;;4939997;29;20019;-76
2022/05/04 04:07:38;;;;;;;8.55;5.50;;;7.70;99.90;;;;;;4938941;29;20479;-76
2022/05/04 04:10:04;;;;;;;8.75;5.72;;;7.70;99.90;;;;;;4940036;29;20040;-77
2022/05/04 04:12:30;;;;;;;5.00;4.60;;;7.70;99.90;;;;;;4922839;29;20051;-76
2022/05/04 04:14:56;;;;;;;5.22;4.22;;;7.60;99.90;;;;;;4922933;29;20031;-76
2022/05/04 04:17:21;;;;;;;8.20;5.70;;;7.80;99.90;;;;;;4939564;29;20066;-76
2022/05/04 04:21:50;;;;;;;6.10;5.50;;;7.90;99.90;;;;;;4940499;29;20028;-76
2022/05/04 04:22:36;;;;;;;10.65;5.20;;;7.80;99.90;;;;;;4940263;29;20032;-76
2022/05/04 04:25:02;;;;;;;7.18;4.57;;;7.80;99.90;;;;;;4936774;29;20452;-75
2022/05/04 04:27:30;;;;;;;19.90;10.35;;;7.80;99.90;;;;;;4935362;29;20024;-76
2022/05/04 04:29:56;;;;;;;75.35;36.10;;;8.00;99.90;;;;;;4935292;29;20016;-77
2022/05/04 04:32:22;;;;;;;25.45;14.43;;;7.80;99.90;;;;;;4935289;29;20104;-76
2022/05/04 04:34:48;;;;;;;12.25;7.70;;;7.90;99.90;;;;;;4935338;29;20039;-76
2022/05/04 04:37:13;;;;;;;10.50;5.90;;;8.20;99.90;;;;;;4934926;29;20024;-76
2022/05/04 04:39:39;;;;;;;8.32;4.75;;;8.00;99.90;;;;;;4934966;29;20039;-75
2022/05/04 04:42:06;;;;;;;7.95;5.15;;;8.60;99.90;;;;;;4935313;29;20030;-76
2022/05/04 04:44:32;;;;;;;8.45;5.53;;;8.10;99.90;;;;;;4935104;29;20495;-76
2022/05/04 04:46:58;;;;;;;39.72;8.13;;;8.20;99.90;;;;;;4935515;29;20035;-76
2022/05/04 04:49:25;;;;;;;20.02;7.10;;;8.20;99.90;;;;;;4918489;29;20043;-76
2022/05/04 04:51:51;;;;;;;18.20;6.05;;;8.20;99.90;;;;;;4936032;29;20035;-76
2022/05/04 04:54:17;;;;;;;7.43;5.85;;;8.30;99.90;;;;;;4936005;29;20043;-76
2022/05/04 04:56:44;;;;;;;7.63;6.20;;;8.40;99.90;;;;;;4936298;29;20020;-76
2022/05/04 04:59:09;;;;;;;9.05;5.80;;;8.40;99.90;;;;;;4935986;29;20535;-76
2022/05/04 05:01:35;;;;;;;9.23;5.80;;;8.50;99.90;;;;;;4937289;29;20154;-76
2022/05/04 05:04:00;;;;;;;6.50;5.60;;;8.50;99.90;;;;;;4940432;29;20062;-76
2022/05/04 05:06:26;;;;;;;14.45;5.85;;;8.40;99.90;;;;;;4941083;29;20043;-76
2022/05/04 05:08:52;;;;;;;10.68;6.38;;;8.50;99.90;;;;;;4923552;29;20027;-76
2022/05/04 05:11:17;;;;;;;7.32;6.40;;;8.60;99.90;;;;;;4939792;29;20031;-75
2022/05/04 05:16:29;;;;;;;13.32;7.43;;;8.90;99.90;;;;;;4940194;29;20083;-76
2022/05/04 05:18:54;;;;;;;9.88;6.55;;;9.10;99.90;;;;;;4921761;29;20030;-76
2022/05/04 05:21:20;;;;;;;8.45;6.72;;;9.10;99.90;;;;;;4939456;29;20102;-76
2022/05/04 05:23:47;;;;;;;7.53;6.72;;;9.20;99.90;;;;;;4938772;29;20024;-77
2022/05/04 05:26:13;;;;;;;10.43;6.85;;;9.50;99.90;;;;;;4943703;29;20004;-77
2022/05/04 05:28:38;;;;;;;10.63;6.03;;;9.70;99.90;;;;;;4938845;29;20039;-78
2022/05/04 05:31:04;;;;;;;6.93;6.22;;;10.10;99.90;;;;;;4923425;29;20059;-80
2022/05/04 05:33:29;;;;;;;8.18;5.88;;;10.50;99.90;;;;;;4923418;29;20443;-78
2022/05/04 05:35:55;;;;;;;10.68;5.32;;;11.10;99.90;;;;;;4937618;29;20028;-77
2022/05/04 05:38:20;;;;;;;7.60;5.15;;;11.60;99.90;;;;;;4937725;29;20027;-78
2022/05/04 05:40:47;;;;;;;10.52;5.13;;;11.70;99.90;;;;;;4920736;29;20040;-78
2022/05/04 05:43:13;;;;;;;7.22;5.50;;;11.90;99.90;;;;;;4937640;29;20035;-78
2022/05/04 05:45:38;;;;;;;8.93;4.68;;;12.10;99.90;;;;;;4920605;29;20030;-78
2022/05/04 05:48:04;;;;;;;6.72;4.70;;;12.30;99.90;;;;;;4937489;29;20137;-79
2022/05/04 05:50:30;;;;;;;5.30;4.80;;;12.40;99.90;;;;;;4937439;29;20468;-78
2022/05/04 05:52:56;;;;;;;4.90;4.40;;;12.70;99.90;;;;;;4937360;29;20376;-77
2022/05/04 05:55:22;;;;;;;7.45;4.15;;;13.00;99.90;;;;;;4937173;29;20111;-78
2022/05/04 05:57:48;;;;;;;4.78;3.78;;;13.20;99.90;;;;;;4937337;29;20051;-78
2022/05/04 06:00:14;;;;;;;6.93;3.92;;;13.50;99.90;;;;;;4920261;29;20130;-77
2022/05/04 06:02:40;;;;;;;5.50;3.70;;;13.50;99.90;;;;;;4937297;29;20024;-78
2022/05/04 06:05:06;;;;;;;5.07;4.20;;;13.80;99.90;;;;;;4937166;29;20103;-78
2022/05/04 06:07:32;;;;;;;4.82;4.15;;;13.90;99.90;;;;;;4920075;29;20106;-78
2022/05/04 06:09:58;;;;;;;7.15;3.75;;;14.10;99.40;;;;;;4937139;29;20112;-79
2022/05/04 06:12:23;;;;;;;5.75;3.85;;;14.00;97.90;;;;;;4936992;29;20034;-78
2022/05/04 06:14:49;;;;;;;5.90;3.58;;;14.00;98.00;;;;;;4936400;29;20418;-78
2022/05/04 06:17:14;;;;;;;6.03;4.07;;;14.10;98.30;;;;;;4936995;29;20038;-78
2022/05/04 06:19:41;;;;;;;5.05;4.18;;;14.40;98.00;;;;;;4936860;29;20380;-78
2022/05/04 06:22:06;;;;;;;4.15;3.70;;;14.70;97.00;;;;;;4919953;29;20039;-78
2022/05/04 06:24:32;;;;;;;5.18;3.63;;;15.10;96.10;;;;;;4936795;29;20027;-79
2022/05/04 06:26:58;;;;;;;5.18;3.55;;;15.40;95.50;;;;;;4919718;29;20028;-78
2022/05/04 06:34:06;;;;;;;4.47;4.07;;;15.60;95.00;;;;;;4919679;29;20476;-78
2022/05/04 06:34:54;;;;;;;4.32;3.17;;;15.80;93.80;;;;;;4936956;29;20052;-79
2022/05/04 06:37:20;;;;;;;4.50;4.10;;;15.90;93.00;;;;;;4919556;29;20126;-79
2022/05/04 06:39:46;;;;;;;4.13;3.72;;;15.90;93.00;;;;;;4936541;29;20111;-78
2022/05/04 06:42:12;;;;;;;3.83;3.45;;;15.80;93.80;;;;;;4936404;29;20039;-79
2022/05/04 06:44:37;;;;;;;4.22;3.53;;;15.90;93.10;;;;;;4919084;29;20032;-78
2022/05/04 06:47:03;;;;;;;4.60;3.78;;;16.00;93.10;;;;;;4919184;29;20059;-79
2022/05/04 06:49:29;;;;;;;4.50;3.67;;;16.10;93.40;;;;;;4919082;29;20127;-79
2022/05/04 06:51:55;;;;;;;3.80;3.33;;;16.20;92.90;;;;;;4935820;29;20035;-79
2022/05/04 06:54:20;;;;;;;3.88;3.53;;;16.30;92.90;;;;;;4935839;29;20477;-78
2022/05/04 06:56:46;;;;;;;5.13;3.53;;;16.40;92.80;;;;;;4936055;29;20028;-79
2022/05/04 06:59:11;;;;;;;7.22;3.88;;;16.50;93.10;;;;;;4918952;29;20066;-79
2022/05/04 07:01:37;;;;;;;5.00;4.20;;;16.50;92.90;;;;;;4936252;29;20027;-79
2022/05/04 07:04:02;;;;;;;3.58;3.00;;;16.60;94.00;;;;;;4935770;29;20628;-81
2022/05/04 07:06:28;;;;;;;5.28;3.70;;;16.70;93.80;;;;;;4935646;29;20031;-80
2022/05/04 07:08:54;;;;;;;3.97;3.58;;;16.80;93.40;;;;;;4918961;29;20047;-80
2022/05/04 07:11:19;;;;;;;5.03;3.88;;;16.80;93.40;;;;;;4919001;29;20432;-80
2022/05/04 07:13:45;;;;;;;4.72;3.53;;;16.90;93.60;;;;;;4936005;29;20038;-81
2022/05/04 07:16:11;;;;;;;7.30;4.28;;;17.00;93.30;;;;;;4935821;29;20089;-80
2022/05/04 07:18:36;;;;;;;8.10;4.63;;;17.10;93.20;;;;;;4919538;29;20027;-79
2022/05/04 07:21:02;;;;;;;7.45;3.83;;;17.30;93.60;;;;;;4935972;29;20027;-79
2022/05/04 07:23:28;;;;;;;3.35;3.03;;;17.40;92.20;;;;;;4935904;29;20412;-80
2022/05/04 07:25:54;;;;;;;3.55;2.80;;;17.50;90.70;;;;;;4918408;29;20087;-79
2022/05/04 07:28:20;;;;;;;6.10;2.80;;;17.70;94.90;;;;;;4935957;29;20031;-81
2022/05/04 07:30:46;;;;;;;3.25;2.80;;;17.70;90.10;;;;;;4918742;29;20423;-78
2022/05/04 07:33:11;;;;;;;4.07;2.60;;;17.80;92.00;;;;;;4935711;29;20039;-79
2022/05/04 07:35:37;;;;;;;6.55;3.35;;;18.00;85.90;;;;;;4918420;29;20401;-80
2022/05/04 07:38:03;;;;;;;5.78;2.80;;;18.40;87.60;;;;;;4935366;29;20469;-79
2022/05/04 07:43:12;;;;;;;3.65;2.70;;;18.30;86.90;;;;;;4935160;29;20070;-78
2022/05/04 07:45:38;;;;;;;5.20;2.75;;;18.50;86.10;;;;;;4934992;29;20047;-78
2022/05/04 07:48:04;;;;;;;8.95;3.08;;;18.50;85.40;;;;;;4935254;29;20453;-79
2022/05/04 07:50:29;;;;;;;3.42;3.03;;;18.60;85.30;;;;;;4935358;29;20028;-79
2022/05/04 07:52:55;;;;;;;4.13;2.50;;;18.70;85.50;;;;;;4917712;29;20038;-80
2022/05/04 07:55:21;;;;;;;3.28;2.80;;;18.70;84.60;;;;;;4917867;29;20482;-79
2022/05/04 07:57:48;;;;;;;2.83;2.25;;;18.90;85.20;;;;;;4917669;29;20083;-79
2022/05/04 08:05:43;;;;;;;5.18;2.63;;;19.20;82.40;;;;;;4935037;29;20078;-78
2022/05/04 08:08:09;;;;;;;3.20;2.90;;;19.30;82.10;;;;;;4934666;29;20036;-77
2022/05/04 08:10:35;;;;;;;3.35;3.00;;;19.30;83.30;;;;;;4934319;29;20582;-78
2022/05/04 08:13:01;;;;;;;2.78;2.55;;;19.40;83.00;;;;;;4934550;29;20114;-77
2022/05/04 08:15:27;;;;;;;3.28;2.78;;;19.40;81.70;;;;;;4934722;29;20031;-77
2022/05/04 08:17:53;;;;;;;5.43;3.50;;;19.50;82.90;;;;;;4917558;29;20475;-78
2022/05/04 08:20:19;;;;;;;6.72;3.40;;;19.70;83.70;;;;;;4934763;29;20055;-77
2022/05/04 08:22:44;;;;;;;5.13;3.03;;;19.60;80.40;;;;;;4934531;29;20360;-78
2022/05/04 08:25:10;;;;;;;5.13;2.78;;;19.70;80.50;;;;;;4934313;29;20381;-78
2022/05/04 08:27:36;;;;;;;5.07;2.50;;;19.80;78.70;;;;;;4934245;29;20500;-79
2022/05/04 08:30:02;;;;;;;4.20;2.20;;;20.00;82.30;;;;;;4918302;29;20062;-84
2022/05/04 08:32:32;;;;;;;3.25;2.40;;;20.10;83.70;;;;;;4917200;29;20476;-80
2022/05/04 08:34:58;;;;;;;8.05;2.30;;;;;;;;;;4934827;29;20094;-79
2022/05/04 08:37:27;;;;;;;2.10;1.95;;;20.30;74.30;;;;;;4937814;29;20054;-77
2022/05/04 08:39:53;;;;;;;2.47;1.40;;;20.30;74.40;;;;;;4939265;29;20031;-77
2022/05/04 08:42:19;;;;;;;2.97;1.75;;;20.40;70.10;;;;;;4938310;29;20024;-77
2022/05/04 08:44:51;;;;;;;2.15;1.80;;;20.50;70.10;;;;;;4938508;29;20170;-80
2022/05/04 08:47:20;;;;;;;4.00;1.77;;;20.50;69.20;;;;;;4938193;29;20031;-75
2022/05/04 08:49:47;;;;;;;5.97;2.67;;;20.60;72.00;;;;;;4938897;29;20043;-75
2022/05/04 08:52:14;;;;;;;2.20;2.00;;;20.60;71.40;;;;;;4938558;29;20036;-75
2022/05/04 08:54:40;;;;;;;2.90;2.60;;;20.70;71.80;;;;;;4938125;29;20126;-77
2022/05/04 08:57:07;;;;;;;2.53;2.25;;;20.70;71.40;;;;;;4937498;29;20022;-77
2022/05/04 08:59:34;;;;;;;3.63;1.52;;;20.70;69.80;;;;;;4938286;29;20031;-77
2022/05/04 09:01:59;;;;;;;4.53;1.85;;;20.70;69.00;;;;;;4938490;29;20027;-77
2022/05/04 09:04:25;;;;;;;1.85;1.73;;;20.90;70.70;;;;;;4938197;29;20030;-79
2022/05/04 09:06:50;;;;;;;3.05;1.95;;;21.00;71.10;;;;;;4938216;29;20371;-77
2022/05/04 09:09:16;;;;;;;2.63;2.40;;;21.10;71.50;;;;;;4938276;29;20394;-77
2022/05/04 09:11:46;;;;;;;5.15;1.95;;;21.20;69.00;;;;;;4938314;29;20456;-78
2022/05/04 09:14:20;;;;;;;2.15;1.73;;;21.20;68.50;;;;;;4920945;29;20043;-77
2022/05/04 09:16:47;;;;;;;2.28;2.08;;;21.20;70.00;;;;;;4920819;29;20028;-77
2022/05/04 09:19:15;;;;;;;3.47;1.90;;;21.30;69.00;;;;;;4938133;29;20352;-77
2022/05/04 09:21:41;;;;;;;2.65;1.80;;;21.40;67.10;;;;;;4920870;29;20604;-77
2022/05/04 09:24:08;;;;;;;4.85;1.90;;;21.50;70.70;;;;;;4938064;29;20028;-77
2022/05/04 09:26:44;;;;;;;2.17;1.88;;;21.60;67.90;;;;;;4937852;29;20487;-77
2022/05/04 09:29:13;;;;;;;3.13;1.75;;;21.60;68.70;;;;;;4937855;29;20023;-77
2022/05/04 09:31:44;;;;;;;1.75;1.55;;;21.70;67.60;;;;;;4920705;29;20123;-78
2022/05/04 09:34:10;;;;;;;2.05;1.70;;;21.80;65.80;;;;;;4937728;29;20043;-77
2022/05/04 09:44:57;;;;;;;1.75;1.65;;;22.00;66.30;;;;;;4938005;29;20090;-75
2022/05/04 09:47:22;;;;;;;2.65;2.13;;;22.00;65.30;;;;;;4937310;29;20111;-75
2022/05/04 09:49:49;;;;;;;3.88;1.92;;;22.00;65.30;;;;;;4937654;29;20110;-75
2022/05/04 09:52:22;;;;;;;2.70;2.03;;;22.00;66.30;;;;;;4920276;29;20399;-74
2022/05/04 09:54:47;;;;;;;2.22;2.00;;;22.00;66.00;;;;;;4937430;29;20082;-74
2022/05/04 09:57:14;;;;;;;3.15;2.33;;;21.90;66.00;;;;;;4937143;29;20464;-76
2022/05/04 09:59:42;;;;;;;3.35;2.00;;;22.00;66.10;;;;;;4920419;29;20090;-74
2022/05/04 10:02:09;;;;;;;2.88;2.00;;;22.00;66.80;;;;;;4937292;29;20024;-74
2022/05/04 10:04:36;;;;;;;8.88;2.47;;;22.00;65.30;;;;;;4937209;29;20448;-74
2022/05/04 10:07:03;;;;;;;3.55;2.28;;;22.00;66.20;;;;;;4937188;29;20478;-74
2022/05/04 10:09:30;;;;;;;5.55;2.35;;;22.00;66.40;;;;;;4937062;29;20063;-74
2022/05/04 10:11:58;;;;;;;4.85;2.28;;;22.00;66.70;;;;;;4937230;29;20031;-74
2022/05/04 10:14:28;;;;;;;2.50;1.90;;;22.00;67.00;;;;;;4936808;29;20094;-74
2022/05/04 10:17:18;;;;;;;2.67;2.08;;;22.10;67.70;;;;;;4936274;29;20020;-74
2022/05/04 10:19:51;;;;;;;2.47;1.88;;;22.10;65.90;;;;;;4936590;29;20617;-74
2022/05/04 10:22:40;;;;;;;4.97;1.85;;;22.20;65.90;;;;;;4936962;29;20479;-74
2022/05/04 10:25:07;;;;;;;2.03;1.83;;;22.20;64.80;;;;;;4935910;29;20094;-74
2022/05/04 10:27:39;;;;;;;4.13;2.20;;;22.30;66.30;;;;;;4936504;29;20050;-73
2022/05/04 10:32:51;;;;;;;2.40;1.83;;;22.40;65.90;;;;;;4936775;29;20059;-75
2022/05/04 10:35:36;;;;;;;3.10;2.17;;;22.40;66.30;;;;;;4936399;29;20459;-75
2022/05/04 10:38:01;;;;;;;3.95;2.05;;;22.50;67.00;;;;;;4936818;29;20028;-75
2022/05/04 10:40:53;;;;;;;2.83;2.08;;;22.60;66.50;;;;;;4919468;29;20023;-75
2022/05/04 10:43:34;;;;;;;3.97;1.95;;;22.70;64.50;;;;;;4936288;29;20032;-75
2022/05/04 10:46:09;;;;;;;2.20;1.77;;;22.70;64.20;;;;;;4919165;29;20078;-74
2022/05/04 10:48:35;;;;;;;2.30;2.10;;;22.80;66.20;;;;;;4936220;29;20084;-74
2022/05/04 10:51:21;;;;;;;2.60;1.95;;;22.90;65.70;;;;;;4935932;29;20480;-75
2022/05/04 10:53:53;;;;;;;3.97;2.10;;;23.00;63.00;;;;;;4936462;29;20042;-74
2022/05/04 10:56:24;;;;;;;3.78;2.17;;;22.90;63.80;;;;;;4935902;29;20024;-74
2022/05/04 10:58:50;;;;;;;2.30;1.77;;;22.90;62.30;;;;;;4935739;29;20067;-74
2022/05/04 11:01:29;;;;;;;2.47;1.77;;;22.90;63.10;;;;;;4935640;29;20057;-74
2022/05/04 11:04:09;;;;;;;2.58;1.60;;;23.10;61.00;;;;;;4918887;29;20165;-75
2022/05/04 11:06:46;;;;;;;2.80;1.80;;;23.10;60.20;;;;;;4935768;29;20028;-75
2022/05/04 11:09:17;;;;;;;3.33;1.48;;;23.00;62.30;;;;;;4918441;29;20036;-75
2022/05/04 11:11:45;;;;;;;2.67;1.80;;;22.90;62.00;;;;;;4935095;29;20455;-74
2022/05/04 11:14:13;;;;;;;6.93;1.67;;;22.70;61.10;;;;;;4918041;29;20110;-74
2022/05/04 11:16:40;;;;;;;1.75;1.65;;;22.70;61.40;;;;;;4935236;29;20114;-75
2022/05/04 11:19:06;;;;;;;3.05;1.50;;;22.80;63.30;;;;;;4935672;29;20811;-76
2022/05/04 11:21:33;;;;;;;1.65;1.55;;;23.10;61.80;;;;;;4936036;29;20500;-75
2022/05/04 11:24:01;;;;;;;1.88;1.52;;;23.30;59.70;;;;;;4918321;29;20094;-76
2022/05/04 11:26:35;;;;;;;3.33;1.52;;;23.40;58.70;;;;;;4935085;29;20028;-76
2022/05/04 11:29:00;;;;;;;3.33;1.33;;;23.40;58.50;;;;;;4935040;29;20020;-75
2022/05/04 11:31:26;;;;;;;2.25;1.55;;;23.50;61.00;;;;;;4935252;29;20503;-75
2022/05/04 11:33:52;;;;;;;2.05;1.25;;;23.70;61.60;;;;;;4918175;29;20107;-76
2022/05/04 11:36:19;;;;;;;1.83;1.70;;;23.90;56.80;;;;;;4935477;29;20595;-76
2022/05/04 11:38:46;;;;;;;1.50;1.40;;;23.90;57.50;;;;;;4935506;29;20015;-75
2022/05/04 11:41:13;;;;;;;3.42;1.48;;;24.00;57.00;;;;;;4935315;29;20091;-75
2022/05/04 11:43:40;;;;;;;2.15;1.35;;;24.10;56.90;;;;;;4935322;29;20551;-75
2022/05/04 11:46:11;;;;;;;1.70;1.58;;;24.20;57.20;;;;;;4935139;29;20456;-75
2022/05/04 11:48:44;;;;;;;3.20;1.60;;;24.20;55.60;;;;;;4918385;29;20368;-75
2022/05/04 11:51:12;;;;;;;2.10;1.45;;;24.20;56.40;;;;;;4934998;29;20099;-77
2022/05/04 11:53:39;;;;;;;2.17;1.80;;;24.20;56.60;;;;;;4935363;29;20170;-76
2022/05/04 11:56:06;;;;;;;1.98;1.40;;;24.30;54.50;;;;;;4934979;29;20045;-76
2022/05/04 11:58:33;;;;;;;3.13;1.88;;;24.40;57.20;;;;;;4934564;29;20090;-77
2022/05/04 12:01:00;;;;;;;4.68;1.55;;;24.40;57.40;;;;;;4917907;29;20042;-77
2022/05/04 12:03:28;;;;;;;4.07;1.30;;;24.40;56.30;;;;;;4934606;29;20067;-76
2022/05/04 12:05:54;;;;;;;1.70;1.42;;;24.20;56.50;;;;;;4918005;29;20023;-77
2022/05/04 12:08:21;;;;;;;2.47;1.52;;;24.10;55.50;;;;;;4917995;29;20027;-77
2022/05/04 12:10:49;;;;;;;3.97;1.40;;;24.20;55.80;;;;;;4934551;29;20028;-76
2022/05/04 12:13:18;;;;;;;2.50;1.25;;;24.20;56.90;;;;;;4934757;29;20115;-77
2022/05/04 12:15:44;;;;;;;1.25;1.17;;;24.20;54.40;;;;;;4935062;29;20046;-77
2022/05/04 12:18:11;;;;;;;1.17;1.15;;;24.10;54.60;;;;;;4917759;29;20388;-80
2022/05/04 12:20:37;;;;;;;2.38;1.55;;;24.10;55.40;;;;;;4917814;29;20032;-77
2022/05/04 12:23:03;;;;;;;1.92;1.10;;;24.10;54.00;;;;;;4935142;29;20028;-77
2022/05/04 12:25:31;;;;;;;3.00;1.00;;;24.30;55.50;;;;;;4917756;29;20034;-76
2022/05/04 12:27:57;;;;;;;1.75;1.10;;;24.50;50.20;;;;;;4934815;29;20031;-77
2022/05/04 12:33:09;;;;;;;1.45;1.27;;;24.90;52.30;;;;;;4920741;29;20090;-77
2022/05/04 12:35:36;;;;;;;1.38;1.13;;;25.00;53.10;;;;;;4934788;29;20031;-77
2022/05/04 12:38:03;;;;;;;2.10;1.30;;;24.90;52.50;;;;;;4934697;29;20031;-77
2022/05/04 12:40:34;;;;;;;1.55;1.45;;;24.70;52.50;;;;;;4934784;29;20032;-77
2022/05/04 12:43:01;;;;;;;1.70;1.42;;;24.50;53.50;;;;;;4934807;29;20479;-77
2022/05/04 12:45:28;;;;;;;2.75;1.50;;;24.20;54.30;;;;;;4934821;29;20487;-77
2022/05/04 12:47:58;;;;;;;1.42;1.33;;;24.00;62.10;;;;;;4934641;29;20035;-77
2022/05/04 12:50:28;;;;;;;3.92;1.70;;;23.70;55.70;;;;;;4934660;29;20118;-77
2022/05/04 12:52:55;;;;;;;3.50;1.92;;;23.60;56.50;;;;;;4934611;29;20468;-77
2022/05/04 12:56:45;;;;;;;4.00;1.90;;;23.60;56.30;;;;;;4934735;29;20035;-77
2022/05/04 12:58:07;;;;;;;1.58;1.27;;;23.80;55.80;;;;;;4934273;29;20046;-77
2022/05/04 13:00:33;;;;;;;2.47;1.50;;;23.70;56.50;;;;;;4934700;29;20114;-77
2022/05/04 13:02:59;;;;;;;3.35;1.55;;;23.70;55.60;;;;;;4934648;29;20011;-77
2022/05/04 13:05:25;;;;;;;1.60;1.50;;;23.60;55.90;;;;;;4934180;29;20023;-76
2022/05/04 13:07:50;;;;;;;4.18;1.65;;;23.50;56.10;;;;;;4934465;29;20024;-77
2022/05/04 13:10:16;;;;;;;3.80;1.60;;;23.40;56.00;;;;;;4917314;29;20031;-77
2022/05/04 13:12:42;;;;;;;1.75;1.58;;;23.40;55.80;;;;;;4934257;29;20094;-77
2022/05/04 13:15:07;;;;;;;1.85;1.65;;;23.30;55.80;;;;;;4916914;29;20066;-78
2022/05/04 13:17:33;;;;;;;4.40;1.70;;;23.20;56.60;;;;;;4933465;29;20107;-78
2022/05/04 13:19:59;;;;;;;3.63;1.60;;;23.10;58.00;;;;;;4917370;29;20027;-77
2022/05/04 13:22:24;;;;;;;4.70;1.42;;;23.00;56.80;;;;;;4934955;29;20484;-77
2022/05/04 13:24:50;;;;;;;4.43;1.50;;;23.00;57.70;;;;;;4937939;29;20027;-77
2022/05/04 13:27:16;;;;;;;2.05;1.30;;;23.00;59.00;;;;;;4920375;29;20079;-77